sensor_id;sensor_type;location;lat;lon;timestamp;P1;durP1;ratioP1;P2;durP2;ratioP2
5491;SDS011;2768;53.540;10.224;2024-01-16T00:04:38;3.23;;;2.30;;
5491;SDS011;2768;53.540;10.224;2024-01-16T00:10:32;2.50;;;2.30;;
5491;SDS011;2768;53.540;10.224;2024-01-16T00:16:27;3.77;;;2.60;;
5491;SDS011;2768;53.540;10.224;2024-01-16T00:22:20;3.30;;;2.43;;
5491;SDS011;2768;53.540;10.224;2024-01-16T00:28:13;2.30;;;2.10;;
5491;SDS011;2768;53.540;10.224;2024-01-16T00:34:08;3.47;;;2.97;;
5491;SDS011;2768;53.540;10.224;2024-01-16T00:40:01;4.67;;;2.60;;
5491;SDS011;2768;53.540;10.224;2024-01-16T00:45:55;2.70;;;2.13;;
5491;SDS011;2768;53.540;10.224;2024-01-16T00:51:50;4.00;;;2.30;;
5491;SDS011;2768;53.540;10.224;2024-01-16T00:57:43;2.80;;;2.53;;
5491;SDS011;2768;53.540;10.224;2024-01-16T01:03:37;3.30;;;2.20;;
5491;SDS011;2768;53.540;10.224;2024-01-16T01:09:33;3.30;;;2.50;;
5491;SDS011;2768;53.540;10.224;2024-01-16T01:15:26;3.70;;;1.87;;
5491;SDS011;2768;53.540;10.224;2024-01-16T01:21:19;4.00;;;2.87;;
5491;SDS011;2768;53.540;10.224;2024-01-16T01:27:14;2.80;;;2.60;;
5491;SDS011;2768;53.540;10.224;2024-01-16T01:33:07;6.00;;;3.37;;
5491;SDS011;2768;53.540;10.224;2024-01-16T01:39:00;3.50;;;3.20;;
5491;SDS011;2768;53.540;10.224;2024-01-16T01:44:56;5.47;;;3.10;;
5491;SDS011;2768;53.540;10.224;2024-01-16T01:50:49;2.90;;;2.70;;
5491;SDS011;2768;53.540;10.224;2024-01-16T01:56:43;4.83;;;3.07;;
5491;SDS011;2768;53.540;10.224;2024-01-16T02:02:38;3.00;;;2.80;;
5491;SDS011;2768;53.540;10.224;2024-01-16T02:08:34;3.50;;;3.20;;
5491;SDS011;2768;53.540;10.224;2024-01-16T02:14:27;3.30;;;3.00;;
5491;SDS011;2768;53.540;10.224;2024-01-16T02:20:22;3.10;;;2.90;;
5491;SDS011;2768;53.540;10.224;2024-01-16T02:26:16;4.07;;;3.70;;
5491;SDS011;2768;53.540;10.224;2024-01-16T02:32:11;5.03;;;3.00;;
5491;SDS011;2768;53.540;10.224;2024-01-16T02:38:05;3.83;;;3.50;;
5491;SDS011;2768;53.540;10.224;2024-01-16T02:44:00;4.10;;;2.97;;
5491;SDS011;2768;53.540;10.224;2024-01-16T02:49:54;3.50;;;3.20;;
5491;SDS011;2768;53.540;10.224;2024-01-16T02:55:47;4.20;;;3.63;;
5491;SDS011;2768;53.540;10.224;2024-01-16T03:01:41;4.30;;;3.70;;
5491;SDS011;2768;53.540;10.224;2024-01-16T03:07:36;4.30;;;3.90;;
5491;SDS011;2768;53.540;10.224;2024-01-16T03:13:29;4.07;;;3.70;;
5491;SDS011;2768;53.540;10.224;2024-01-16T03:19:23;5.10;;;4.60;;
5491;SDS011;2768;53.540;10.224;2024-01-16T03:25:17;6.03;;;5.43;;
5491;SDS011;2768;53.540;10.224;2024-01-16T03:31:12;5.97;;;5.33;;
5491;SDS011;2768;53.540;10.224;2024-01-16T03:37:07;6.50;;;5.80;;
5491;SDS011;2768;53.540;10.224;2024-01-16T03:43:00;7.87;;;6.70;;
5491;SDS011;2768;53.540;10.224;2024-01-16T03:48:54;9.27;;;7.43;;
5491;SDS011;2768;53.540;10.224;2024-01-16T03:54:48;11.30;;;8.60;;
5491;SDS011;2768;53.540;10.224;2024-01-16T04:00:43;9.27;;;8.10;;
5491;SDS011;2768;53.540;10.224;2024-01-16T04:06:36;11.97;;;9.20;;
5491;SDS011;2768;53.540;10.224;2024-01-16T04:12:31;10.13;;;8.60;;
5491;SDS011;2768;53.540;10.224;2024-01-16T04:18:24;10.80;;;9.10;;
5491;SDS011;2768;53.540;10.224;2024-01-16T04:24:17;11.90;;;9.87;;
5491;SDS011;2768;53.540;10.224;2024-01-16T04:30:13;10.77;;;9.17;;
5491;SDS011;2768;53.540;10.224;2024-01-16T04:36:06;10.70;;;9.10;;
5491;SDS011;2768;53.540;10.224;2024-01-16T04:42:01;10.37;;;8.40;;
5491;SDS011;2768;53.540;10.224;2024-01-16T04:47:56;10.73;;;9.23;;
5491;SDS011;2768;53.540;10.224;2024-01-16T04:53:49;9.87;;;8.73;;
5491;SDS011;2768;53.540;10.224;2024-01-16T04:59:42;10.77;;;8.00;;
5491;SDS011;2768;53.540;10.224;2024-01-16T05:05:37;8.13;;;6.70;;
5491;SDS011;2768;53.540;10.224;2024-01-16T05:11:31;9.30;;;7.30;;
5491;SDS011;2768;53.540;10.224;2024-01-16T05:17:24;8.93;;;6.70;;
5491;SDS011;2768;53.540;10.224;2024-01-16T05:23:19;9.90;;;7.30;;
5491;SDS011;2768;53.540;10.224;2024-01-16T05:29:13;9.60;;;6.60;;
5491;SDS011;2768;53.540;10.224;2024-01-16T05:35:07;9.13;;;6.77;;
5491;SDS011;2768;53.540;10.224;2024-01-16T05:41:03;7.37;;;6.20;;
5491;SDS011;2768;53.540;10.224;2024-01-16T05:46:56;6.90;;;6.13;;
5491;SDS011;2768;53.540;10.224;2024-01-16T05:52:49;10.50;;;6.80;;
5491;SDS011;2768;53.540;10.224;2024-01-16T05:58:44;7.80;;;6.00;;
5491;SDS011;2768;53.540;10.224;2024-01-16T06:04:37;6.77;;;5.23;;
5491;SDS011;2768;53.540;10.224;2024-01-16T06:10:30;5.90;;;5.27;;
5491;SDS011;2768;53.540;10.224;2024-01-16T06:16:25;6.63;;;5.20;;
5491;SDS011;2768;53.540;10.224;2024-01-16T06:22:19;5.97;;;4.17;;
5491;SDS011;2768;53.540;10.224;2024-01-16T06:28:12;6.33;;;3.93;;
5491;SDS011;2768;53.540;10.224;2024-01-16T06:34:07;3.17;;;2.87;;
5491;SDS011;2768;53.540;10.224;2024-01-16T06:40:01;4.67;;;3.60;;
5491;SDS011;2768;53.540;10.224;2024-01-16T06:45:55;4.07;;;3.00;;
5491;SDS011;2768;53.540;10.224;2024-01-16T06:51:51;2.47;;;1.90;;
5491;SDS011;2768;53.540;10.224;2024-01-16T06:57:44;2.87;;;1.80;;
5491;SDS011;2768;53.540;10.224;2024-01-16T07:03:38;6.07;;;2.13;;
5491;SDS011;2768;53.540;10.224;2024-01-16T07:09:32;4.17;;;1.90;;
5491;SDS011;2768;53.540;10.224;2024-01-16T07:15:25;4.00;;;2.40;;
5491;SDS011;2768;53.540;10.224;2024-01-16T07:21:19;2.37;;;2.07;;
5491;SDS011;2768;53.540;10.224;2024-01-16T07:27:14;4.30;;;2.70;;
5491;SDS011;2768;53.540;10.224;2024-01-16T07:33:07;2.43;;;2.20;;
5491;SDS011;2768;53.540;10.224;2024-01-16T07:39:01;3.47;;;2.63;;
5491;SDS011;2768;53.540;10.224;2024-01-16T07:44:55;11.20;;;3.50;;
5491;SDS011;2768;53.540;10.224;2024-01-16T07:50:49;5.03;;;3.90;;
5491;SDS011;2768;53.540;10.224;2024-01-16T07:56:43;6.20;;;5.20;;
5491;SDS011;2768;53.540;10.224;2024-01-16T08:02:39;9.70;;;5.90;;
5491;SDS011;2768;53.540;10.224;2024-01-16T08:08:33;10.20;;;6.87;;
5491;SDS011;2768;53.540;10.224;2024-01-16T08:14:26;7.47;;;6.20;;
5491;SDS011;2768;53.540;10.224;2024-01-16T08:20:22;11.80;;;7.63;;
5491;SDS011;2768;53.540;10.224;2024-01-16T08:26:15;8.93;;;6.70;;
5491;SDS011;2768;53.540;10.224;2024-01-16T08:32:08;6.90;;;6.20;;
5491;SDS011;2768;53.540;10.224;2024-01-16T08:38:03;9.30;;;5.63;;
5491;SDS011;2768;53.540;10.224;2024-01-16T08:43:56;7.10;;;5.53;;
5491;SDS011;2768;53.540;10.224;2024-01-16T08:49:50;7.80;;;5.23;;
5491;SDS011;2768;53.540;10.224;2024-01-16T08:55:45;13.70;;;6.50;;
5491;SDS011;2768;53.540;10.224;2024-01-16T09:01:38;6.50;;;5.40;;
5491;SDS011;2768;53.540;10.224;2024-01-16T09:07:33;10.13;;;6.30;;
5491;SDS011;2768;53.540;10.224;2024-01-16T09:13:28;10.93;;;5.90;;
5491;SDS011;2768;53.540;10.224;2024-01-16T09:19:21;10.47;;;7.37;;
5491;SDS011;2768;53.540;10.224;2024-01-16T09:25:15;10.53;;;7.40;;
5491;SDS011;2768;53.540;10.224;2024-01-16T09:31:14;15.13;;;8.63;;
5491;SDS011;2768;53.540;10.224;2024-01-16T09:37:07;11.53;;;7.97;;
5491;SDS011;2768;53.540;10.224;2024-01-16T09:43:00;12.23;;;6.97;;
5491;SDS011;2768;53.540;10.224;2024-01-16T09:48:58;12.67;;;8.53;;
5491;SDS011;2768;53.540;10.224;2024-01-16T09:54:53;11.63;;;6.83;;
5491;SDS011;2768;53.540;10.224;2024-01-16T10:00:46;12.30;;;7.20;;
5491;SDS011;2768;53.540;10.224;2024-01-16T10:06:41;10.17;;;5.63;;
5491;SDS011;2768;53.540;10.224;2024-01-16T10:12:39;10.50;;;6.43;;
5491;SDS011;2768;53.540;10.224;2024-01-16T10:18:33;10.43;;;5.70;;
5491;SDS011;2768;53.540;10.224;2024-01-16T10:24:28;9.37;;;4.43;;
5491;SDS011;2768;53.540;10.224;2024-01-16T10:30:21;9.47;;;4.30;;
5491;SDS011;2768;53.540;10.224;2024-01-16T10:36:16;5.60;;;4.17;;
5491;SDS011;2768;53.540;10.224;2024-01-16T10:42:14;11.30;;;4.20;;
5491;SDS011;2768;53.540;10.224;2024-01-16T10:48:08;6.40;;;3.80;;
5491;SDS011;2768;53.540;10.224;2024-01-16T10:54:02;11.57;;;3.93;;
5491;SDS011;2768;53.540;10.224;2024-01-16T11:00:00;7.40;;;4.60;;
5491;SDS011;2768;53.540;10.224;2024-01-16T11:05:56;5.80;;;5.30;;
5491;SDS011;2768;53.540;10.224;2024-01-16T11:11:51;11.50;;;5.90;;
5491;SDS011;2768;53.540;10.224;2024-01-16T11:17:49;5.03;;;4.17;;
5491;SDS011;2768;53.540;10.224;2024-01-16T11:23:44;11.53;;;5.00;;
5491;SDS011;2768;53.540;10.224;2024-01-16T11:29:39;6.53;;;4.83;;
5491;SDS011;2768;53.540;10.224;2024-01-16T11:35:34;6.73;;;5.20;;
5491;SDS011;2768;53.540;10.224;2024-01-16T11:47:48;11.90;;;5.30;;
5491;SDS011;2768;53.540;10.224;2024-01-16T11:53:45;5.90;;;4.50;;
5491;SDS011;2768;53.540;10.224;2024-01-16T11:59:57;9.03;;;4.20;;
5491;SDS011;2768;53.540;10.224;2024-01-16T12:06:02;8.80;;;4.40;;
5491;SDS011;2768;53.540;10.224;2024-01-16T12:12:01;11.30;;;6.00;;
5491;SDS011;2768;53.540;10.224;2024-01-16T12:17:56;11.43;;;4.80;;
5491;SDS011;2768;53.540;10.224;2024-01-16T12:23:51;7.73;;;4.43;;
5491;SDS011;2768;53.540;10.224;2024-01-16T12:30:08;9.33;;;3.60;;
5491;SDS011;2768;53.540;10.224;2024-01-16T12:36:02;5.73;;;3.50;;
5491;SDS011;2768;53.540;10.224;2024-01-16T12:41:57;5.43;;;3.53;;
5491;SDS011;2768;53.540;10.224;2024-01-16T12:47:53;11.33;;;4.40;;
5491;SDS011;2768;53.540;10.224;2024-01-16T12:53:49;7.60;;;4.33;;
5491;SDS011;2768;53.540;10.224;2024-01-16T12:59:43;9.07;;;3.93;;
5491;SDS011;2768;53.540;10.224;2024-01-16T13:05:37;11.37;;;4.17;;
5491;SDS011;2768;53.540;10.224;2024-01-16T13:11:31;7.10;;;4.73;;
5491;SDS011;2768;53.540;10.224;2024-01-16T13:17:36;7.97;;;3.67;;
5491;SDS011;2768;53.540;10.224;2024-01-16T13:23:31;4.97;;;3.80;;
5491;SDS011;2768;53.540;10.224;2024-01-16T13:29:24;9.67;;;4.80;;
5491;SDS011;2768;53.540;10.224;2024-01-16T13:35:17;5.90;;;4.40;;
5491;SDS011;2768;53.540;10.224;2024-01-16T13:41:12;12.07;;;4.40;;
5491;SDS011;2768;53.540;10.224;2024-01-16T13:47:05;6.43;;;3.20;;
5491;SDS011;2768;53.540;10.224;2024-01-16T13:53:05;5.53;;;2.37;;
5491;SDS011;2768;53.540;10.224;2024-01-16T13:59:00;5.73;;;2.50;;
5491;SDS011;2768;53.540;10.224;2024-01-16T14:04:54;6.97;;;4.30;;
5491;SDS011;2768;53.540;10.224;2024-01-16T14:10:47;4.93;;;4.43;;
5491;SDS011;2768;53.540;10.224;2024-01-16T14:16:41;8.70;;;6.10;;
5491;SDS011;2768;53.540;10.224;2024-01-16T14:22:45;7.17;;;6.20;;
5491;SDS011;2768;53.540;10.224;2024-01-16T14:28:38;11.93;;;6.90;;
5491;SDS011;2768;53.540;10.224;2024-01-16T14:34:33;8.30;;;7.07;;
5491;SDS011;2768;53.540;10.224;2024-01-16T14:40:27;12.17;;;6.60;;
5491;SDS011;2768;53.540;10.224;2024-01-16T14:46:20;10.47;;;5.33;;
5491;SDS011;2768;53.540;10.224;2024-01-16T14:52:16;6.83;;;5.33;;
5491;SDS011;2768;53.540;10.224;2024-01-16T14:58:10;11.33;;;5.03;;
5491;SDS011;2768;53.540;10.224;2024-01-16T15:04:04;7.90;;;5.07;;
5491;SDS011;2768;53.540;10.224;2024-01-16T15:09:59;6.53;;;3.70;;
5491;SDS011;2768;53.540;10.224;2024-01-16T15:15:52;6.27;;;4.30;;
5491;SDS011;2768;53.540;10.224;2024-01-16T15:21:47;8.87;;;4.03;;
5491;SDS011;2768;53.540;10.224;2024-01-16T15:27:41;7.30;;;4.60;;
5491;SDS011;2768;53.540;10.224;2024-01-16T15:33:35;8.37;;;4.47;;
5491;SDS011;2768;53.540;10.224;2024-01-16T15:39:29;6.07;;;4.10;;
5491;SDS011;2768;53.540;10.224;2024-01-16T15:45:23;5.70;;;4.40;;
5491;SDS011;2768;53.540;10.224;2024-01-16T15:51:18;4.03;;;3.60;;
5491;SDS011;2768;53.540;10.224;2024-01-16T15:57:11;4.37;;;4.00;;
5491;SDS011;2768;53.540;10.224;2024-01-16T16:03:08;5.97;;;3.87;;
5491;SDS011;2768;53.540;10.224;2024-01-16T16:09:02;6.90;;;4.47;;
5491;SDS011;2768;53.540;10.224;2024-01-16T16:14:55;6.20;;;4.27;;
5491;SDS011;2768;53.540;10.224;2024-01-16T16:20:50;8.60;;;5.23;;
5491;SDS011;2768;53.540;10.224;2024-01-16T16:26:44;9.03;;;4.67;;
5491;SDS011;2768;53.540;10.224;2024-01-16T16:32:37;9.60;;;7.27;;
5491;SDS011;2768;53.540;10.224;2024-01-16T16:38:32;10.00;;;7.90;;
5491;SDS011;2768;53.540;10.224;2024-01-16T16:44:25;14.87;;;8.20;;
5491;SDS011;2768;53.540;10.224;2024-01-16T16:50:18;8.83;;;7.30;;
5491;SDS011;2768;53.540;10.224;2024-01-16T16:56:13;11.97;;;7.80;;
5491;SDS011;2768;53.540;10.224;2024-01-16T17:02:08;8.83;;;6.70;;
5491;SDS011;2768;53.540;10.224;2024-01-16T17:08:01;9.70;;;7.20;;
5491;SDS011;2768;53.540;10.224;2024-01-16T17:13:57;8.33;;;7.07;;
5491;SDS011;2768;53.540;10.224;2024-01-16T17:19:50;8.90;;;7.40;;
5491;SDS011;2768;53.540;10.224;2024-01-16T17:25:43;9.70;;;8.47;;
5491;SDS011;2768;53.540;10.224;2024-01-16T17:31:38;14.33;;;8.70;;
5491;SDS011;2768;53.540;10.224;2024-01-16T17:37:34;9.93;;;8.90;;
5491;SDS011;2768;53.540;10.224;2024-01-16T17:43:27;18.27;;;11.10;;
5491;SDS011;2768;53.540;10.224;2024-01-16T17:49:22;10.60;;;9.30;;
5491;SDS011;2768;53.540;10.224;2024-01-16T17:55:16;12.03;;;9.07;;
5491;SDS011;2768;53.540;10.224;2024-01-16T18:01:09;12.20;;;8.60;;
5491;SDS011;2768;53.540;10.224;2024-01-16T18:07:05;12.87;;;8.60;;
5491;SDS011;2768;53.540;10.224;2024-01-16T18:12:59;11.73;;;8.90;;
5491;SDS011;2768;53.540;10.224;2024-01-16T18:18:52;13.97;;;9.30;;
5491;SDS011;2768;53.540;10.224;2024-01-16T18:24:47;14.23;;;9.40;;
5491;SDS011;2768;53.540;10.224;2024-01-16T18:30:40;15.70;;;10.93;;
5491;SDS011;2768;53.540;10.224;2024-01-16T18:36:33;13.50;;;11.50;;
5491;SDS011;2768;53.540;10.224;2024-01-16T18:42:28;18.27;;;12.17;;
5491;SDS011;2768;53.540;10.224;2024-01-16T18:48:21;22.13;;;14.00;;
5491;SDS011;2768;53.540;10.224;2024-01-16T18:54:14;16.03;;;12.80;;
5491;SDS011;2768;53.540;10.224;2024-01-16T19:00:10;20.23;;;12.27;;
5491;SDS011;2768;53.540;10.224;2024-01-16T19:06:05;20.90;;;14.10;;
5491;SDS011;2768;53.540;10.224;2024-01-16T19:12:04;14.97;;;12.70;;
5491;SDS011;2768;53.540;10.224;2024-01-16T19:18:00;18.93;;;13.40;;
5491;SDS011;2768;53.540;10.224;2024-01-16T19:23:56;15.03;;;12.10;;
5491;SDS011;2768;53.540;10.224;2024-01-16T19:29:50;17.73;;;12.27;;
5491;SDS011;2768;53.540;10.224;2024-01-16T19:35:44;14.60;;;12.47;;
5491;SDS011;2768;53.540;10.224;2024-01-16T19:41:38;13.60;;;10.57;;
5491;SDS011;2768;53.540;10.224;2024-01-16T19:47:32;11.70;;;10.50;;
5491;SDS011;2768;53.540;10.224;2024-01-16T19:53:27;13.40;;;10.17;;
5491;SDS011;2768;53.540;10.224;2024-01-16T19:59:20;13.07;;;10.50;;
5491;SDS011;2768;53.540;10.224;2024-01-16T20:05:16;12.43;;;9.70;;
5491;SDS011;2768;53.540;10.224;2024-01-16T20:11:11;11.93;;;10.10;;
5491;SDS011;2768;53.540;10.224;2024-01-16T20:17:05;11.20;;;10.10;;
5491;SDS011;2768;53.540;10.224;2024-01-16T20:22:58;16.10;;;10.10;;
5491;SDS011;2768;53.540;10.224;2024-01-16T20:28:53;12.33;;;9.83;;
5491;SDS011;2768;53.540;10.224;2024-01-16T20:34:46;10.07;;;9.07;;
5491;SDS011;2768;53.540;10.224;2024-01-16T20:40:40;10.90;;;9.23;;
5491;SDS011;2768;53.540;10.224;2024-01-16T20:46:36;10.73;;;8.90;;
5491;SDS011;2768;53.540;10.224;2024-01-16T20:52:29;9.57;;;8.53;;
5491;SDS011;2768;53.540;10.224;2024-01-16T20:58:23;12.50;;;8.20;;
5491;SDS011;2768;53.540;10.224;2024-01-16T21:04:18;8.70;;;7.90;;
5491;SDS011;2768;53.540;10.224;2024-01-16T21:10:11;12.73;;;8.33;;
5491;SDS011;2768;53.540;10.224;2024-01-16T21:16:05;9.93;;;7.83;;
5491;SDS011;2768;53.540;10.224;2024-01-16T21:22:00;11.03;;;8.90;;
5491;SDS011;2768;53.540;10.224;2024-01-16T21:27:53;8.97;;;7.40;;
5491;SDS011;2768;53.540;10.224;2024-01-16T21:33:46;11.00;;;8.17;;
5491;SDS011;2768;53.540;10.224;2024-01-16T21:39:41;9.90;;;8.60;;
5491;SDS011;2768;53.540;10.224;2024-01-16T21:45:34;10.77;;;8.80;;
5491;SDS011;2768;53.540;10.224;2024-01-16T21:51:28;11.27;;;8.73;;
5491;SDS011;2768;53.540;10.224;2024-01-16T21:57:22;11.47;;;8.57;;
5491;SDS011;2768;53.540;10.224;2024-01-16T22:03:15;9.57;;;8.67;;
5491;SDS011;2768;53.540;10.224;2024-01-16T22:09:09;11.30;;;8.93;;
5491;SDS011;2768;53.540;10.224;2024-01-16T22:15:07;12.17;;;8.77;;
5491;SDS011;2768;53.540;10.224;2024-01-16T22:21:03;11.63;;;9.07;;
5491;SDS011;2768;53.540;10.224;2024-01-16T22:26:58;10.87;;;8.80;;
5491;SDS011;2768;53.540;10.224;2024-01-16T22:32:53;10.63;;;9.20;;
5491;SDS011;2768;53.540;10.224;2024-01-16T22:38:46;10.70;;;9.60;;
5491;SDS011;2768;53.540;10.224;2024-01-16T22:44:40;13.40;;;9.63;;
5491;SDS011;2768;53.540;10.224;2024-01-16T22:50:40;12.90;;;9.97;;
5491;SDS011;2768;53.540;10.224;2024-01-16T22:56:34;11.40;;;10.20;;
5491;SDS011;2768;53.540;10.224;2024-01-16T23:02:27;16.33;;;11.03;;
5491;SDS011;2768;53.540;10.224;2024-01-16T23:08:22;12.43;;;11.10;;
5491;SDS011;2768;53.540;10.224;2024-01-16T23:14:16;15.07;;;11.77;;
5491;SDS011;2768;53.540;10.224;2024-01-16T23:20:09;14.83;;;12.03;;
5491;SDS011;2768;53.540;10.224;2024-01-16T23:26:07;18.00;;;11.50;;
5491;SDS011;2768;53.540;10.224;2024-01-16T23:32:06;14.17;;;11.47;;
5491;SDS011;2768;53.540;10.224;2024-01-16T23:37:59;16.53;;;11.00;;
5491;SDS011;2768;53.540;10.224;2024-01-16T23:43:54;20.10;;;12.10;;
5491;SDS011;2768;53.540;10.224;2024-01-16T23:49:48;14.00;;;11.00;;
5491;SDS011;2768;53.540;10.224;2024-01-16T23:55:42;12.10;;;10.30;;
